sensor_id;sensor_type;location;lat;lon;timestamp;P1;durP1;ratioP1;P2;durP2;ratioP2
62788;SDS011;66401;42.016;21.454;2023-04-03T00:01:20;15.90;;;9.30;;
62788;SDS011;66401;42.016;21.454;2023-04-03T00:03:46;16.10;;;9.67;;
62788;SDS011;66401;42.016;21.454;2023-04-03T00:06:11;13.63;;;8.83;;
62788;SDS011;66401;42.016;21.454;2023-04-03T00:08:37;12.70;;;7.93;;
62788;SDS011;66401;42.016;21.454;2023-04-03T00:11:04;12.63;;;7.80;;
62788;SDS011;66401;42.016;21.454;2023-04-03T00:13:30;12.83;;;8.23;;
62788;SDS011;66401;42.016;21.454;2023-04-03T00:15:57;12.27;;;7.50;;
62788;SDS011;66401;42.016;21.454;2023-04-03T00:18:23;7.37;;;5.60;;
62788;SDS011;66401;42.016;21.454;2023-04-03T00:20:49;9.67;;;6.03;;
62788;SDS011;66401;42.016;21.454;2023-04-03T00:23:15;5.77;;;4.17;;
62788;SDS011;66401;42.016;21.454;2023-04-03T00:25:41;5.57;;;3.60;;
62788;SDS011;66401;42.016;21.454;2023-04-03T00:28:07;7.70;;;3.43;;
62788;SDS011;66401;42.016;21.454;2023-04-03T00:30:33;5.37;;;3.83;;
62788;SDS011;66401;42.016;21.454;2023-04-03T00:32:59;5.83;;;3.93;;
62788;SDS011;66401;42.016;21.454;2023-04-03T00:35:26;6.20;;;3.30;;
62788;SDS011;66401;42.016;21.454;2023-04-03T00:37:52;5.70;;;3.67;;
62788;SDS011;66401;42.016;21.454;2023-04-03T00:40:19;7.83;;;5.10;;
62788;SDS011;66401;42.016;21.454;2023-04-03T00:42:45;10.97;;;6.33;;
62788;SDS011;66401;42.016;21.454;2023-04-03T00:47:40;12.37;;;7.67;;
62788;SDS011;66401;42.016;21.454;2023-04-03T00:50:06;11.30;;;6.93;;
62788;SDS011;66401;42.016;21.454;2023-04-03T00:52:32;9.73;;;6.37;;
62788;SDS011;66401;42.016;21.454;2023-04-03T00:55:00;9.20;;;6.60;;
62788;SDS011;66401;42.016;21.454;2023-04-03T00:57:29;14.70;;;7.23;;
62788;SDS011;66401;42.016;21.454;2023-04-03T00:59:59;14.77;;;7.57;;
62788;SDS011;66401;42.016;21.454;2023-04-03T01:02:29;10.93;;;6.67;;
62788;SDS011;66401;42.016;21.454;2023-04-03T01:04:56;10.47;;;7.00;;
62788;SDS011;66401;42.016;21.454;2023-04-03T01:07:22;12.03;;;6.97;;
62788;SDS011;66401;42.016;21.454;2023-04-03T01:09:53;10.17;;;6.63;;
62788;SDS011;66401;42.016;21.454;2023-04-03T01:12:24;11.17;;;5.70;;
62788;SDS011;66401;42.016;21.454;2023-04-03T01:14:56;9.53;;;5.73;;
62788;SDS011;66401;42.016;21.454;2023-04-03T01:19:56;14.90;;;6.80;;
62788;SDS011;66401;42.016;21.454;2023-04-03T01:22:56;10.83;;;4.77;;
62788;SDS011;66401;42.016;21.454;2023-04-03T01:25:26;7.83;;;5.83;;
62788;SDS011;66401;42.016;21.454;2023-04-03T01:27:52;10.23;;;5.97;;
62788;SDS011;66401;42.016;21.454;2023-04-03T01:30:18;11.53;;;6.33;;
62788;SDS011;66401;42.016;21.454;2023-04-03T01:32:45;8.67;;;6.20;;
62788;SDS011;66401;42.016;21.454;2023-04-03T01:35:11;11.40;;;6.03;;
62788;SDS011;66401;42.016;21.454;2023-04-03T01:37:37;10.47;;;5.73;;
62788;SDS011;66401;42.016;21.454;2023-04-03T01:40:03;10.13;;;5.87;;
62788;SDS011;66401;42.016;21.454;2023-04-03T01:42:30;8.23;;;5.90;;
62788;SDS011;66401;42.016;21.454;2023-04-03T01:44:56;13.03;;;6.90;;
62788;SDS011;66401;42.016;21.454;2023-04-03T01:47:22;7.07;;;5.50;;
62788;SDS011;66401;42.016;21.454;2023-04-03T01:49:47;8.67;;;6.27;;
62788;SDS011;66401;42.016;21.454;2023-04-03T01:52:13;8.93;;;5.90;;
62788;SDS011;66401;42.016;21.454;2023-04-03T01:54:38;7.60;;;5.20;;
62788;SDS011;66401;42.016;21.454;2023-04-03T01:57:04;7.80;;;5.47;;
62788;SDS011;66401;42.016;21.454;2023-04-03T01:59:30;8.87;;;5.80;;
62788;SDS011;66401;42.016;21.454;2023-04-03T02:01:55;8.17;;;5.60;;
62788;SDS011;66401;42.016;21.454;2023-04-03T02:04:21;9.83;;;5.90;;
62788;SDS011;66401;42.016;21.454;2023-04-03T02:06:46;6.20;;;5.40;;
62788;SDS011;66401;42.016;21.454;2023-04-03T02:09:12;8.83;;;5.20;;
62788;SDS011;66401;42.016;21.454;2023-04-03T02:11:38;6.53;;;4.83;;
62788;SDS011;66401;42.016;21.454;2023-04-03T02:14:03;4.90;;;3.93;;
62788;SDS011;66401;42.016;21.454;2023-04-03T02:16:29;4.70;;;3.27;;
62788;SDS011;66401;42.016;21.454;2023-04-03T02:18:55;4.77;;;2.70;;
62788;SDS011;66401;42.016;21.454;2023-04-03T02:21:21;3.20;;;2.90;;
62788;SDS011;66401;42.016;21.454;2023-04-03T02:23:46;5.07;;;3.43;;
62788;SDS011;66401;42.016;21.454;2023-04-03T02:26:13;3.50;;;3.20;;
62788;SDS011;66401;42.016;21.454;2023-04-03T02:28:39;4.40;;;3.03;;
62788;SDS011;66401;42.016;21.454;2023-04-03T02:31:06;2.77;;;2.57;;
62788;SDS011;66401;42.016;21.454;2023-04-03T02:33:33;2.90;;;2.53;;
62788;SDS011;66401;42.016;21.454;2023-04-03T02:35:59;4.57;;;3.17;;
62788;SDS011;66401;42.016;21.454;2023-04-03T02:38:25;3.03;;;2.43;;
62788;SDS011;66401;42.016;21.454;2023-04-03T02:40:51;3.07;;;2.70;;
62788;SDS011;66401;42.016;21.454;2023-04-03T02:43:17;3.13;;;2.67;;
62788;SDS011;66401;42.016;21.454;2023-04-03T02:45:43;2.77;;;2.57;;
62788;SDS011;66401;42.016;21.454;2023-04-03T02:48:08;3.30;;;2.43;;
62788;SDS011;66401;42.016;21.454;2023-04-03T02:50:34;2.30;;;2.10;;
62788;SDS011;66401;42.016;21.454;2023-04-03T02:53:00;2.90;;;2.20;;
62788;SDS011;66401;42.016;21.454;2023-04-03T02:55:26;4.33;;;2.53;;
62788;SDS011;66401;42.016;21.454;2023-04-03T02:57:51;3.27;;;2.50;;
62788;SDS011;66401;42.016;21.454;2023-04-03T03:00:17;3.07;;;2.40;;
62788;SDS011;66401;42.016;21.454;2023-04-03T03:02:43;4.77;;;2.60;;
62788;SDS011;66401;42.016;21.454;2023-04-03T03:05:08;2.47;;;2.27;;
62788;SDS011;66401;42.016;21.454;2023-04-03T03:07:34;2.50;;;2.30;;
62788;SDS011;66401;42.016;21.454;2023-04-03T03:09:59;3.93;;;2.10;;
62788;SDS011;66401;42.016;21.454;2023-04-03T03:12:25;2.50;;;2.30;;
62788;SDS011;66401;42.016;21.454;2023-04-03T03:14:50;2.70;;;2.20;;
62788;SDS011;66401;42.016;21.454;2023-04-03T03:17:16;3.67;;;2.40;;
62788;SDS011;66401;42.016;21.454;2023-04-03T03:19:42;4.00;;;2.37;;
62788;SDS011;66401;42.016;21.454;2023-04-03T03:22:08;3.20;;;2.47;;
62788;SDS011;66401;42.016;21.454;2023-04-03T03:24:34;3.17;;;2.60;;
62788;SDS011;66401;42.016;21.454;2023-04-03T03:27:00;3.13;;;2.47;;
62788;SDS011;66401;42.016;21.454;2023-04-03T03:29:25;7.63;;;3.57;;
62788;SDS011;66401;42.016;21.454;2023-04-03T03:31:51;8.03;;;5.00;;
62788;SDS011;66401;42.016;21.454;2023-04-03T03:34:16;4.97;;;4.57;;
62788;SDS011;66401;42.016;21.454;2023-04-03T03:36:42;7.83;;;5.00;;
62788;SDS011;66401;42.016;21.454;2023-04-03T03:39:07;7.20;;;4.53;;
62788;SDS011;66401;42.016;21.454;2023-04-03T03:41:33;13.97;;;4.90;;
62788;SDS011;66401;42.016;21.454;2023-04-03T03:43:59;7.67;;;5.03;;
62788;SDS011;66401;42.016;21.454;2023-04-03T03:46:25;7.07;;;5.30;;
62788;SDS011;66401;42.016;21.454;2023-04-03T03:48:50;7.87;;;5.50;;
62788;SDS011;66401;42.016;21.454;2023-04-03T03:51:16;8.73;;;5.80;;
62788;SDS011;66401;42.016;21.454;2023-04-03T03:53:42;7.73;;;5.27;;
62788;SDS011;66401;42.016;21.454;2023-04-03T03:56:07;7.90;;;5.43;;
62788;SDS011;66401;42.016;21.454;2023-04-03T03:58:33;6.10;;;4.80;;
62788;SDS011;66401;42.016;21.454;2023-04-03T04:01:02;12.00;;;5.60;;
62788;SDS011;66401;42.016;21.454;2023-04-03T04:03:31;6.43;;;4.83;;
62788;SDS011;66401;42.016;21.454;2023-04-03T04:05:57;8.67;;;5.53;;
62788;SDS011;66401;42.016;21.454;2023-04-03T04:08:22;6.63;;;5.10;;
62788;SDS011;66401;42.016;21.454;2023-04-03T04:10:48;10.20;;;5.60;;
62788;SDS011;66401;42.016;21.454;2023-04-03T04:13:14;9.60;;;5.50;;
62788;SDS011;66401;42.016;21.454;2023-04-03T04:15:39;9.10;;;5.00;;
62788;SDS011;66401;42.016;21.454;2023-04-03T04:18:05;9.00;;;4.97;;
62788;SDS011;66401;42.016;21.454;2023-04-03T04:20:31;8.67;;;5.60;;
62788;SDS011;66401;42.016;21.454;2023-04-03T04:22:57;11.40;;;5.53;;
62788;SDS011;66401;42.016;21.454;2023-04-03T04:25:22;8.87;;;4.73;;
62788;SDS011;66401;42.016;21.454;2023-04-03T04:27:48;6.10;;;5.13;;
62788;SDS011;66401;42.016;21.454;2023-04-03T04:30:13;7.90;;;5.17;;
62788;SDS011;66401;42.016;21.454;2023-04-03T04:32:39;5.07;;;4.17;;
62788;SDS011;66401;42.016;21.454;2023-04-03T04:35:04;10.80;;;4.93;;
62788;SDS011;66401;42.016;21.454;2023-04-03T04:37:30;8.40;;;4.53;;
62788;SDS011;66401;42.016;21.454;2023-04-03T04:39:56;5.73;;;4.30;;
62788;SDS011;66401;42.016;21.454;2023-04-03T04:42:22;6.77;;;4.43;;
62788;SDS011;66401;42.016;21.454;2023-04-03T04:44:48;7.33;;;4.30;;
62788;SDS011;66401;42.016;21.454;2023-04-03T04:47:13;7.73;;;3.83;;
62788;SDS011;66401;42.016;21.454;2023-04-03T04:49:39;4.60;;;3.43;;
62788;SDS011;66401;42.016;21.454;2023-04-03T04:52:05;6.70;;;4.43;;
62788;SDS011;66401;42.016;21.454;2023-04-03T04:54:31;5.87;;;4.30;;
62788;SDS011;66401;42.016;21.454;2023-04-03T04:56:57;8.67;;;3.97;;
62788;SDS011;66401;42.016;21.454;2023-04-03T04:59:22;5.27;;;4.67;;
62788;SDS011;66401;42.016;21.454;2023-04-03T05:01:48;4.40;;;4.00;;
62788;SDS011;66401;42.016;21.454;2023-04-03T05:04:13;4.33;;;3.67;;
62788;SDS011;66401;42.016;21.454;2023-04-03T05:06:40;4.90;;;3.27;;
62788;SDS011;66401;42.016;21.454;2023-04-03T05:09:05;5.63;;;3.70;;
62788;SDS011;66401;42.016;21.454;2023-04-03T05:11:31;6.57;;;4.30;;
62788;SDS011;66401;42.016;21.454;2023-04-03T05:13:57;4.30;;;3.87;;
62788;SDS011;66401;42.016;21.454;2023-04-03T05:16:22;4.57;;;3.43;;
62788;SDS011;66401;42.016;21.454;2023-04-03T05:18:48;7.10;;;3.90;;
62788;SDS011;66401;42.016;21.454;2023-04-03T05:21:13;8.07;;;4.50;;
62788;SDS011;66401;42.016;21.454;2023-04-03T05:23:39;8.07;;;4.20;;
62788;SDS011;66401;42.016;21.454;2023-04-03T05:26:05;6.03;;;4.17;;
62788;SDS011;66401;42.016;21.454;2023-04-03T05:28:31;5.40;;;3.93;;
62788;SDS011;66401;42.016;21.454;2023-04-03T05:30:57;6.27;;;3.97;;
62788;SDS011;66401;42.016;21.454;2023-04-03T05:33:24;9.30;;;4.67;;
62788;SDS011;66401;42.016;21.454;2023-04-03T05:35:51;7.47;;;4.73;;
62788;SDS011;66401;42.016;21.454;2023-04-03T05:38:23;5.53;;;3.93;;
62788;SDS011;66401;42.016;21.454;2023-04-03T05:40:48;9.00;;;4.03;;
62788;SDS011;66401;42.016;21.454;2023-04-03T05:43:14;7.80;;;4.93;;
62788;SDS011;66401;42.016;21.454;2023-04-03T05:45:39;6.60;;;4.43;;
62788;SDS011;66401;42.016;21.454;2023-04-03T05:48:05;6.73;;;4.73;;
62788;SDS011;66401;42.016;21.454;2023-04-03T05:50:30;5.67;;;4.73;;
62788;SDS011;66401;42.016;21.454;2023-04-03T05:52:57;5.77;;;4.47;;
62788;SDS011;66401;42.016;21.454;2023-04-03T05:55:24;9.07;;;5.17;;
62788;SDS011;66401;42.016;21.454;2023-04-03T05:57:49;6.17;;;4.80;;
62788;SDS011;66401;42.016;21.454;2023-04-03T06:00:15;6.20;;;4.00;;
62788;SDS011;66401;42.016;21.454;2023-04-03T06:02:41;5.87;;;3.90;;
62788;SDS011;66401;42.016;21.454;2023-04-03T06:05:09;11.07;;;4.70;;
62788;SDS011;66401;42.016;21.454;2023-04-03T06:07:37;6.27;;;3.83;;
62788;SDS011;66401;42.016;21.454;2023-04-03T06:10:02;4.33;;;3.87;;
62788;SDS011;66401;42.016;21.454;2023-04-03T06:12:28;7.33;;;4.83;;
62788;SDS011;66401;42.016;21.454;2023-04-03T06:14:55;10.97;;;5.33;;
62788;SDS011;66401;42.016;21.454;2023-04-03T06:17:21;7.53;;;5.47;;
62788;SDS011;66401;42.016;21.454;2023-04-03T06:19:47;9.43;;;5.33;;
62788;SDS011;66401;42.016;21.454;2023-04-03T06:22:13;9.93;;;5.10;;
62788;SDS011;66401;42.016;21.454;2023-04-03T06:24:38;10.57;;;5.33;;
62788;SDS011;66401;42.016;21.454;2023-04-03T06:27:05;7.97;;;5.70;;
62788;SDS011;66401;42.016;21.454;2023-04-03T06:29:30;10.23;;;5.30;;
62788;SDS011;66401;42.016;21.454;2023-04-03T06:31:56;8.00;;;5.80;;
62788;SDS011;66401;42.016;21.454;2023-04-03T06:34:21;9.97;;;5.47;;
62788;SDS011;66401;42.016;21.454;2023-04-03T06:36:47;7.50;;;5.77;;
62788;SDS011;66401;42.016;21.454;2023-04-03T06:39:17;8.07;;;6.40;;
62788;SDS011;66401;42.016;21.454;2023-04-03T06:41:48;8.80;;;6.10;;
62788;SDS011;66401;42.016;21.454;2023-04-03T06:44:13;6.60;;;5.37;;
62788;SDS011;66401;42.016;21.454;2023-04-03T06:46:41;8.00;;;5.23;;
62788;SDS011;66401;42.016;21.454;2023-04-03T06:49:08;9.50;;;5.87;;
62788;SDS011;66401;42.016;21.454;2023-04-03T06:51:34;9.03;;;6.03;;
62788;SDS011;66401;42.016;21.454;2023-04-03T06:54:01;9.57;;;6.33;;
62788;SDS011;66401;42.016;21.454;2023-04-03T06:56:27;8.47;;;5.30;;
62788;SDS011;66401;42.016;21.454;2023-04-03T06:58:54;7.43;;;4.97;;
62788;SDS011;66401;42.016;21.454;2023-04-03T07:01:22;6.00;;;5.30;;
62788;SDS011;66401;42.016;21.454;2023-04-03T07:03:51;6.13;;;4.87;;
62788;SDS011;66401;42.016;21.454;2023-04-03T07:06:17;7.67;;;5.10;;
62788;SDS011;66401;42.016;21.454;2023-04-03T07:08:43;5.27;;;4.77;;
62788;SDS011;66401;42.016;21.454;2023-04-03T07:11:10;8.27;;;5.00;;
62788;SDS011;66401;42.016;21.454;2023-04-03T07:13:37;5.80;;;4.67;;
62788;SDS011;66401;42.016;21.454;2023-04-03T07:16:03;7.73;;;4.83;;
62788;SDS011;66401;42.016;21.454;2023-04-03T07:18:30;7.00;;;4.87;;
62788;SDS011;66401;42.016;21.454;2023-04-03T07:20:56;5.33;;;4.73;;
62788;SDS011;66401;42.016;21.454;2023-04-03T07:23:22;10.57;;;5.03;;
62788;SDS011;66401;42.016;21.454;2023-04-03T07:25:48;7.13;;;5.70;;
62788;SDS011;66401;42.016;21.454;2023-04-03T07:28:15;8.07;;;5.53;;
62788;SDS011;66401;42.016;21.454;2023-04-03T07:30:45;6.47;;;5.73;;
62788;SDS011;66401;42.016;21.454;2023-04-03T07:33:13;7.30;;;5.23;;
62788;SDS011;66401;42.016;21.454;2023-04-03T07:35:40;9.07;;;5.63;;
62788;SDS011;66401;42.016;21.454;2023-04-03T07:38:06;9.27;;;5.90;;
62788;SDS011;66401;42.016;21.454;2023-04-03T07:40:32;6.57;;;5.47;;
62788;SDS011;66401;42.016;21.454;2023-04-03T07:42:58;10.80;;;5.70;;
62788;SDS011;66401;42.016;21.454;2023-04-03T07:45:24;8.77;;;5.77;;
62788;SDS011;66401;42.016;21.454;2023-04-03T07:47:50;7.17;;;5.40;;
62788;SDS011;66401;42.016;21.454;2023-04-03T07:50:16;6.80;;;5.33;;
62788;SDS011;66401;42.016;21.454;2023-04-03T07:52:42;10.63;;;5.27;;
62788;SDS011;66401;42.016;21.454;2023-04-03T07:55:08;8.77;;;5.10;;
62788;SDS011;66401;42.016;21.454;2023-04-03T07:57:34;6.83;;;5.73;;
62788;SDS011;66401;42.016;21.454;2023-04-03T08:00:00;8.07;;;5.20;;
62788;SDS011;66401;42.016;21.454;2023-04-03T08:02:26;6.63;;;5.23;;
62788;SDS011;66401;42.016;21.454;2023-04-03T08:04:51;7.90;;;5.53;;
62788;SDS011;66401;42.016;21.454;2023-04-03T08:07:17;7.10;;;6.00;;
62788;SDS011;66401;42.016;21.454;2023-04-03T08:09:42;7.00;;;5.47;;
62788;SDS011;66401;42.016;21.454;2023-04-03T08:12:09;13.10;;;6.97;;
62788;SDS011;66401;42.016;21.454;2023-04-03T08:14:36;8.27;;;6.33;;
62788;SDS011;66401;42.016;21.454;2023-04-03T08:17:02;7.10;;;5.43;;
62788;SDS011;66401;42.016;21.454;2023-04-03T08:19:29;10.67;;;6.67;;
62788;SDS011;66401;42.016;21.454;2023-04-03T08:21:55;19.20;;;12.63;;
62788;SDS011;66401;42.016;21.454;2023-04-03T08:24:24;10.30;;;6.77;;
62788;SDS011;66401;42.016;21.454;2023-04-03T08:26:50;10.70;;;7.77;;
62788;SDS011;66401;42.016;21.454;2023-04-03T08:29:16;10.53;;;6.67;;
62788;SDS011;66401;42.016;21.454;2023-04-03T08:31:41;6.80;;;5.43;;
62788;SDS011;66401;42.016;21.454;2023-04-03T08:34:07;8.77;;;5.57;;
62788;SDS011;66401;42.016;21.454;2023-04-03T08:36:33;7.17;;;5.77;;
62788;SDS011;66401;42.016;21.454;2023-04-03T08:38:59;8.97;;;5.97;;
62788;SDS011;66401;42.016;21.454;2023-04-03T08:47:44;9.13;;;5.67;;
62788;SDS011;66401;42.016;21.454;2023-04-03T08:50:11;7.43;;;5.33;;
62788;SDS011;66401;42.016;21.454;2023-04-03T08:58:26;8.07;;;4.30;;
62788;SDS011;66401;42.016;21.454;2023-04-03T09:01:14;5.97;;;4.63;;
62788;SDS011;66401;42.016;21.454;2023-04-03T09:03:48;7.30;;;5.17;;
62788;SDS011;66401;42.016;21.454;2023-04-03T09:06:14;6.13;;;4.90;;
62788;SDS011;66401;42.016;21.454;2023-04-03T09:08:48;5.70;;;4.33;;
62788;SDS011;66401;42.016;21.454;2023-04-03T09:16:56;7.00;;;4.40;;
62788;SDS011;66401;42.016;21.454;2023-04-03T09:21:58;6.27;;;3.83;;
62788;SDS011;66401;42.016;21.454;2023-04-03T09:24:27;4.20;;;3.90;;
62788;SDS011;66401;42.016;21.454;2023-04-03T09:29:35;3.87;;;3.57;;
62788;SDS011;66401;42.016;21.454;2023-04-03T09:32:27;3.80;;;3.50;;
62788;SDS011;66401;42.016;21.454;2023-04-03T09:34:56;3.73;;;3.43;;
62788;SDS011;66401;42.016;21.454;2023-04-03T09:37:46;4.97;;;4.07;;
62788;SDS011;66401;42.016;21.454;2023-04-03T09:43:02;5.67;;;4.47;;
62788;SDS011;66401;42.016;21.454;2023-04-03T09:45:45;4.17;;;3.73;;
62788;SDS011;66401;42.016;21.454;2023-04-03T09:54:03;4.43;;;4.03;;
62788;SDS011;66401;42.016;21.454;2023-04-03T09:58:45;4.57;;;3.40;;
62788;SDS011;66401;42.016;21.454;2023-04-03T10:01:25;4.20;;;3.77;;
62788;SDS011;66401;42.016;21.454;2023-04-03T10:04:04;4.50;;;4.10;;
62788;SDS011;66401;42.016;21.454;2023-04-03T10:06:54;4.20;;;3.80;;
62788;SDS011;66401;42.016;21.454;2023-04-03T10:09:21;4.23;;;3.83;;
62788;SDS011;66401;42.016;21.454;2023-04-03T10:17:23;5.13;;;3.23;;
62788;SDS011;66401;42.016;21.454;2023-04-03T10:19:53;3.60;;;3.30;;
62788;SDS011;66401;42.016;21.454;2023-04-03T10:28:05;3.70;;;3.40;;
62788;SDS011;66401;42.016;21.454;2023-04-03T10:30:46;3.73;;;3.43;;
62788;SDS011;66401;42.016;21.454;2023-04-03T10:46:53;4.40;;;4.00;;
62788;SDS011;66401;42.016;21.454;2023-04-03T10:52:20;5.30;;;4.33;;
62788;SDS011;66401;42.016;21.454;2023-04-03T10:57:39;4.83;;;4.40;;
62788;SDS011;66401;42.016;21.454;2023-04-03T11:00:06;5.20;;;4.70;;
62788;SDS011;66401;42.016;21.454;2023-04-03T11:03:03;5.93;;;5.33;;
62788;SDS011;66401;42.016;21.454;2023-04-03T11:05:37;5.40;;;4.87;;
62788;SDS011;66401;42.016;21.454;2023-04-03T11:08:19;6.63;;;5.63;;
62788;SDS011;66401;42.016;21.454;2023-04-03T11:10:48;7.73;;;5.97;;
62788;SDS011;66401;42.016;21.454;2023-04-03T11:15:50;7.47;;;6.17;;
62788;SDS011;66401;42.016;21.454;2023-04-03T11:18:22;10.57;;;5.90;;
62788;SDS011;66401;42.016;21.454;2023-04-03T11:21:04;11.00;;;6.07;;
62788;SDS011;66401;42.016;21.454;2023-04-03T11:23:36;7.00;;;6.30;;
62788;SDS011;66401;42.016;21.454;2023-04-03T11:26:09;7.00;;;5.47;;
62788;SDS011;66401;42.016;21.454;2023-04-03T11:28:37;7.20;;;6.03;;
62788;SDS011;66401;42.016;21.454;2023-04-03T11:33:55;8.80;;;6.70;;
62788;SDS011;66401;42.016;21.454;2023-04-03T11:36:24;10.17;;;6.50;;
62788;SDS011;66401;42.016;21.454;2023-04-03T11:38:54;7.83;;;6.90;;
62788;SDS011;66401;42.016;21.454;2023-04-03T11:41:29;8.73;;;6.53;;
62788;SDS011;66401;42.016;21.454;2023-04-03T11:44:00;7.00;;;6.33;;
62788;SDS011;66401;42.016;21.454;2023-04-03T12:05:48;7.83;;;6.53;;
62788;SDS011;66401;42.016;21.454;2023-04-03T12:08:27;8.93;;;6.93;;
62788;SDS011;66401;42.016;21.454;2023-04-03T12:19:27;7.03;;;6.37;;
62788;SDS011;66401;42.016;21.454;2023-04-03T12:32:37;7.80;;;6.83;;
62788;SDS011;66401;42.016;21.454;2023-04-03T12:35:26;9.40;;;7.17;;
62788;SDS011;66401;42.016;21.454;2023-04-03T12:41:18;6.70;;;6.00;;
62788;SDS011;66401;42.016;21.454;2023-04-03T12:43:59;9.70;;;7.00;;
62788;SDS011;66401;42.016;21.454;2023-04-03T12:46:28;7.33;;;6.57;;
62788;SDS011;66401;42.016;21.454;2023-04-03T12:49:12;8.10;;;7.03;;
62788;SDS011;66401;42.016;21.454;2023-04-03T12:51:47;7.90;;;6.53;;
62788;SDS011;66401;42.016;21.454;2023-04-03T12:54:14;11.07;;;7.57;;
62788;SDS011;66401;42.016;21.454;2023-04-03T12:56:44;10.37;;;7.10;;
62788;SDS011;66401;42.016;21.454;2023-04-03T12:59:14;9.93;;;7.60;;
62788;SDS011;66401;42.016;21.454;2023-04-03T13:01:41;10.40;;;7.07;;
62788;SDS011;66401;42.016;21.454;2023-04-03T13:04:07;10.37;;;7.80;;
62788;SDS011;66401;42.016;21.454;2023-04-03T13:06:41;10.27;;;7.50;;
62788;SDS011;66401;42.016;21.454;2023-04-03T13:09:18;9.53;;;7.80;;
62788;SDS011;66401;42.016;21.454;2023-04-03T13:12:01;10.27;;;7.87;;
62788;SDS011;66401;42.016;21.454;2023-04-03T13:14:34;10.97;;;7.67;;
62788;SDS011;66401;42.016;21.454;2023-04-03T13:17:03;10.40;;;7.40;;
62788;SDS011;66401;42.016;21.454;2023-04-03T13:19:35;11.00;;;7.67;;
62788;SDS011;66401;42.016;21.454;2023-04-03T13:22:05;9.93;;;8.33;;
62788;SDS011;66401;42.016;21.454;2023-04-03T13:24:34;9.17;;;7.80;;
62788;SDS011;66401;42.016;21.454;2023-04-03T13:27:02;12.90;;;8.40;;
62788;SDS011;66401;42.016;21.454;2023-04-03T13:29:32;12.07;;;9.20;;
62788;SDS011;66401;42.016;21.454;2023-04-03T13:32:01;14.93;;;10.43;;
62788;SDS011;66401;42.016;21.454;2023-04-03T13:34:29;14.33;;;9.87;;
62788;SDS011;66401;42.016;21.454;2023-04-03T13:37:02;14.87;;;10.60;;
62788;SDS011;66401;42.016;21.454;2023-04-03T13:39:30;16.53;;;11.10;;
62788;SDS011;66401;42.016;21.454;2023-04-03T13:41:59;13.80;;;10.03;;
62788;SDS011;66401;42.016;21.454;2023-04-03T13:44:28;15.20;;;10.80;;
62788;SDS011;66401;42.016;21.454;2023-04-03T13:49:43;16.87;;;10.63;;
62788;SDS011;66401;42.016;21.454;2023-04-03T13:54:45;15.80;;;10.50;;
62788;SDS011;66401;42.016;21.454;2023-04-03T13:57:13;15.73;;;10.03;;
62788;SDS011;66401;42.016;21.454;2023-04-03T13:59:42;16.27;;;10.47;;
62788;SDS011;66401;42.016;21.454;2023-04-03T14:07:02;15.70;;;11.17;;
62788;SDS011;66401;42.016;21.454;2023-04-03T14:09:28;15.70;;;11.57;;
62788;SDS011;66401;42.016;21.454;2023-04-03T14:11:54;14.73;;;10.63;;
62788;SDS011;66401;42.016;21.454;2023-04-03T14:14:24;12.43;;;10.80;;
62788;SDS011;66401;42.016;21.454;2023-04-03T14:16:56;14.87;;;10.93;;
62788;SDS011;66401;42.016;21.454;2023-04-03T14:19:29;16.80;;;10.63;;
62788;SDS011;66401;42.016;21.454;2023-04-03T14:21:57;14.53;;;10.20;;
62788;SDS011;66401;42.016;21.454;2023-04-03T14:24:24;13.67;;;10.80;;
62788;SDS011;66401;42.016;21.454;2023-04-03T14:26:51;15.67;;;10.23;;
62788;SDS011;66401;42.016;21.454;2023-04-03T14:29:18;11.70;;;8.70;;
62788;SDS011;66401;42.016;21.454;2023-04-03T14:31:44;13.67;;;9.47;;
62788;SDS011;66401;42.016;21.454;2023-04-03T14:34:11;13.33;;;9.87;;
62788;SDS011;66401;42.016;21.454;2023-04-03T14:36:37;15.27;;;11.47;;
62788;SDS011;66401;42.016;21.454;2023-04-03T14:39:04;16.70;;;10.17;;
62788;SDS011;66401;42.016;21.454;2023-04-03T14:41:31;15.73;;;10.43;;
62788;SDS011;66401;42.016;21.454;2023-04-03T14:43:57;15.13;;;11.07;;
62788;SDS011;66401;42.016;21.454;2023-04-03T14:48:54;17.17;;;11.70;;
62788;SDS011;66401;42.016;21.454;2023-04-03T14:51:19;17.53;;;12.03;;
62788;SDS011;66401;42.016;21.454;2023-04-03T14:53:45;17.27;;;11.93;;
62788;SDS011;66401;42.016;21.454;2023-04-03T14:56:24;15.53;;;10.97;;
62788;SDS011;66401;42.016;21.454;2023-04-03T14:58:56;13.73;;;10.37;;
62788;SDS011;66401;42.016;21.454;2023-04-03T15:01:24;13.13;;;10.63;;
62788;SDS011;66401;42.016;21.454;2023-04-03T15:03:50;14.77;;;10.33;;
62788;SDS011;66401;42.016;21.454;2023-04-03T15:06:15;15.43;;;10.57;;
62788;SDS011;66401;42.016;21.454;2023-04-03T15:08:42;10.93;;;9.63;;
62788;SDS011;66401;42.016;21.454;2023-04-03T15:11:09;18.30;;;12.03;;
62788;SDS011;66401;42.016;21.454;2023-04-03T15:13:36;15.90;;;11.67;;
62788;SDS011;66401;42.016;21.454;2023-04-03T15:16:02;15.97;;;10.80;;
62788;SDS011;66401;42.016;21.454;2023-04-03T15:18:30;14.00;;;10.40;;
62788;SDS011;66401;42.016;21.454;2023-04-03T15:21:01;5.40;;;4.10;;
62788;SDS011;66401;42.016;21.454;2023-04-03T15:23:27;2.10;;;2.00;;
62788;SDS011;66401;42.016;21.454;2023-04-03T15:25:53;2.37;;;2.17;;
62788;SDS011;66401;42.016;21.454;2023-04-03T15:30:57;3.00;;;2.67;;
62788;SDS011;66401;42.016;21.454;2023-04-03T15:33:23;3.27;;;3.07;;
62788;SDS011;66401;42.016;21.454;2023-04-03T15:35:49;7.07;;;5.60;;
62788;SDS011;66401;42.016;21.454;2023-04-03T15:38:15;14.87;;;10.50;;
62788;SDS011;66401;42.016;21.454;2023-04-03T15:40:40;15.20;;;10.67;;
62788;SDS011;66401;42.016;21.454;2023-04-03T15:43:07;12.07;;;10.00;;
62788;SDS011;66401;42.016;21.454;2023-04-03T15:45:33;10.57;;;7.10;;
62788;SDS011;66401;42.016;21.454;2023-04-03T15:48:02;12.83;;;8.40;;
62788;SDS011;66401;42.016;21.454;2023-04-03T15:50:28;9.47;;;7.53;;
62788;SDS011;66401;42.016;21.454;2023-04-03T15:52:53;9.23;;;6.77;;
62788;SDS011;66401;42.016;21.454;2023-04-03T15:55:29;9.73;;;6.20;;
62788;SDS011;66401;42.016;21.454;2023-04-03T15:57:57;8.23;;;6.43;;
62788;SDS011;66401;42.016;21.454;2023-04-03T16:00:23;7.57;;;5.20;;
62788;SDS011;66401;42.016;21.454;2023-04-03T16:02:52;8.50;;;6.33;;
62788;SDS011;66401;42.016;21.454;2023-04-03T16:05:22;11.17;;;7.13;;
62788;SDS011;66401;42.016;21.454;2023-04-03T16:07:48;7.47;;;6.70;;
62788;SDS011;66401;42.016;21.454;2023-04-03T16:10:14;9.47;;;6.10;;
62788;SDS011;66401;42.016;21.454;2023-04-03T16:12:44;6.70;;;4.87;;
62788;SDS011;66401;42.016;21.454;2023-04-03T16:15:10;8.47;;;4.77;;
62788;SDS011;66401;42.016;21.454;2023-04-03T16:17:36;6.53;;;4.53;;
62788;SDS011;66401;42.016;21.454;2023-04-03T16:20:02;5.30;;;3.50;;
62788;SDS011;66401;42.016;21.454;2023-04-03T16:22:29;3.87;;;3.37;;
62788;SDS011;66401;42.016;21.454;2023-04-03T16:24:55;3.20;;;2.90;;
62788;SDS011;66401;42.016;21.454;2023-04-03T16:27:21;6.83;;;2.57;;
62788;SDS011;66401;42.016;21.454;2023-04-03T16:29:48;3.67;;;2.27;;
62788;SDS011;66401;42.016;21.454;2023-04-03T16:32:13;5.73;;;2.50;;
62788;SDS011;66401;42.016;21.454;2023-04-03T16:34:39;2.60;;;2.40;;
62788;SDS011;66401;42.016;21.454;2023-04-03T16:37:06;2.73;;;2.07;;
62788;SDS011;66401;42.016;21.454;2023-04-03T16:39:33;2.23;;;2.03;;
62788;SDS011;66401;42.016;21.454;2023-04-03T16:42:00;4.07;;;2.53;;
62788;SDS011;66401;42.016;21.454;2023-04-03T16:44:25;1.83;;;1.67;;